Antonio B. Won Pat International Airport
PGUM : now visible

Airfield :











YOU CAN JOIN US ON...

 
LOGIN :

Register | Disclaimer

   EN    FR    IT 

 









Legend :    VFR   Marginal VFR   IFR   Intensive IFR   Very Intensive IFR
Visi :
Ceiling :
>= 8 km
>= 3000ft
5 to 8 km
1000 to 3000 ft
1500m to 5 km
500 to 1000 ft
800 to 1500m
200 to 500 ft
< 800m
< 200 ft
Symbols :   Thunderstorms  Fog  Heavy snow  Heavy precipitations  Wind > 20 kt






- Airport Elevation : 298 ft
- IATA code : GUM


PGUM - Antonio B. Won Pat International

CURRENT METAR :
  • 230854Z 06011KT 10SM FEW019 SCT025 28/25 A2987 RMK AO2 SLP106 T02830250 53010

EXPIRED METARs :
  • 230754Z 08011KT 10SM FEW019 29/25 A2985 RMK AO2 SLP100 T02890250
  • 230739Z 07015KT 10SM SCT019 BKN027 29/25 A2985 RMK AO2 T02890250
  • 230654Z 07014KT 10SM FEW018 29/25 A2984 RMK AO2 SLP098 T02940250
  • 230601Z 07015KT 10SM FEW018 SCT045 30/25 A2984 RMK AO2 T03000250
  • 230554Z 07013G21KT 10SM BKN020 BKN025 30/24 A2984 RMK AO2 SLP096 T03000244 10306 20294 56015
  • 230501Z 08011G20KT 10SM BKN020 BKN025 29/25 A2986 RMK AO2 T02940250
  • 230454Z 08011KT 10SM SCT020 SCT025 BKN043 29/25 A2986 RMK AO2 SLP102 T02940250
  • 230437Z 09012G20KT 10SM SCT020 SCT025 BKN041 30/24 A2986 RMK AO2 T03000244

TAF PGUM
Valid from the 23 at 08:00 until the 24 at 12:00 UTC


230755Z 2308/2412 08014KT P6SM VCSH SCT018 SCT035 BKN100
PGZU FIR / Oceania



MET'MAP, your aeronautical weather chart ! - Copyright ORBIFLY December 2007 - Disclaimer

ORBIFLY MET'MAP TEAM :

Programming & Development : Alexandra Zaïnal
Original concept : Baudouin d'Aumeries
Technical & hardware support : Manuel Goepfert
Assistance : Marc-Olivier Méhu




SOURCES & CREDITS :

   NOAA       Earth
Advisory